CheckWX is a tool to help pilots better visualize weather data.  It is not intended as a substitute for an official pre-flight weather briefing.

07:06:15 UTC

KCRG TAF
Jacksonville Executive at Craig Airport
Jacksonville, Florida, USA
KCRG 150520Z 1506/1606 01008KT 4SM -RA BR OVC003 TEMPO 1507/1511 2SM RA BR FM151100 34010KT 2SM -RA BR OVC004 FM151600 33012KT P6SM VCSH OVC008

Nov-15@
06:00 UTC

Nov-15 @ 06:00 UTC

Nov-15@
11:00 UTC

Nov-15 @ 11:00 UTC

KCRG 150520Z 1506/1606 01008KT 4SM -RA BR OVC003
Wind
  • 010° at 8 KTS
Conditions
Light Rain, Mist
Cloud Levels
  • Overcast at 300' AGL

Nov-15@
07:00 UTC

Nov-15 @ 07:00 UTC

Nov-15@
11:00 UTC

Nov-15 @ 11:00 UTC

TEMPO 1507/1511 2SM RA BR

Temporary

Temporary Changes expected for less than half the time period

Conditions
Rain, Mist

Nov-15@
11:00 UTC

Nov-15 @ 11:00 UTC

Nov-15@
16:00 UTC

Nov-15 @ 16:00 UTC

FM151100 34010KT 2SM -RA BR OVC004

From

From Standard forecast or significant change

Wind
  • 340° at 10 KTS
Conditions
Light Rain, Mist
Cloud Levels
  • Overcast at 400' AGL

Nov-15@
16:00 UTC

Nov-15 @ 16:00 UTC

Nov-16@
06:00 UTC

Nov-16 @ 06:00 UTC

FM151600 33012KT P6SM VCSH OVC008

From

From Standard forecast or significant change

Wind
  • 330° at 12 KTS
Cloud Levels
  • Overcast at 800' AGL